Time;durP1;ratioP1;P1;durP2;ratioP2;P2;SDS_P1;SDS_P2;PMS_P1;PMS_P2;Temp;Humidity;BMP_temperature;BMP_pressure;BME280_temperature;BME280_humidity;BME280_pressure;Samples;Min_cycle;Max_cycle;Signal;HPM_P1;HPM_P2
2022/07/11 00:00:06;;;;;;;13.93;2.13;;;;;;;;;;5026246;28;20045;-80
2022/07/11 00:02:34;;;;;;;12.18;2.20;;;;;;;;;;5026470;28;20680;-80
2022/07/11 00:05:04;;;;;;;14.55;2.00;;;;;;;;;;5014375;28;20133;-81
2022/07/11 00:07:32;;;;;;;16.05;1.70;;;;;;;;;;5014381;28;20125;-81
2022/07/11 00:09:59;;;;;;;10.23;1.88;;;;;;;;;;5011476;28;20137;-80
2022/07/11 00:12:27;;;;;;;6.75;1.90;;;;;;;;;;5030250;28;20172;-80
2022/07/11 00:14:54;;;;;;;7.68;1.80;;;;;;;;;;5024229;28;20535;-80
2022/07/11 00:17:22;;;;;;;6.78;1.70;;;;;;;;;;5014064;28;20158;-80
2022/07/11 00:19:50;;;;;;;10.88;2.17;;;;;;;;;;5009778;28;20897;-80
2022/07/11 00:22:18;;;;;;;15.70;2.55;;;;;;;;;;5026180;28;20129;-80
2022/07/11 00:24:45;;;;;;;16.35;2.53;;;;;;;;;;5020788;28;20134;-80
2022/07/11 00:27:13;;;;;;;11.38;2.10;;;;;;;;;;5005266;28;21599;-79
2022/07/11 00:29:41;;;;;;;8.40;2.08;;;;;;;;;;5006320;28;20177;-79
2022/07/11 00:32:08;;;;;;;13.10;3.22;;;;;;;;;;4983940;28;20049;-81
2022/07/11 00:34:36;;;;;;;12.43;2.15;;;;;;;;;;4990051;28;20069;-80
2022/07/11 00:37:03;;;;;;;8.73;2.22;;;;;;;;;;4998862;28;20517;-80
2022/07/11 00:39:30;;;;;;;13.55;2.85;;;;;;;;;;5012702;28;20966;-79
2022/07/11 00:41:58;;;;;;;14.63;3.75;;;;;;;;;;4999084;28;20128;-80
2022/07/11 00:44:25;;;;;;;10.55;2.35;;;;;;;;;;5000600;28;20064;-80
2022/07/11 00:46:53;;;;;;;15.85;2.38;;;;;;;;;;4999624;28;20184;-80
2022/07/11 00:49:21;;;;;;;9.60;2.30;;;;;;;;;;5011943;28;20058;-80
2022/07/11 00:51:49;;;;;;;13.85;2.15;;;;;;;;;;5006747;28;20068;-82
2022/07/11 00:54:17;;;;;;;9.20;2.60;;;;;;;;;;5009339;28;20837;-81
2022/07/11 00:56:44;;;;;;;5.45;1.77;;;;;;;;;;5024504;28;20081;-80
2022/07/11 00:59:12;;;;;;;8.73;1.92;;;;;;;;;;5024423;28;20510;-80
2022/07/11 01:01:40;;;;;;;10.13;2.35;;;;;;;;;;4992641;28;20054;-81
2022/07/11 01:04:07;;;;;;;5.45;1.98;;;;;;;;;;5009364;28;20131;-80
2022/07/11 01:06:34;;;;;;;12.68;2.45;;;;;;;;;;5008737;28;20934;-80
2022/07/11 01:09:02;;;;;;;10.13;2.50;;;;;;;;;;5024053;28;20546;-81
2022/07/11 01:11:29;;;;;;;13.85;2.22;;;;;;;;;;5024946;28;20057;-80
2022/07/11 01:13:56;;;;;;;10.75;2.35;;;;;;;;;;5026457;28;20100;-80
2022/07/11 01:16:24;;;;;;;6.45;2.22;;;;;;;;;;5011203;28;20069;-80
2022/07/11 01:18:52;;;;;;;17.10;2.58;;;;;;;;;;5010907;28;20081;-80
2022/07/11 01:21:20;;;;;;;16.10;2.25;;;;;;;;;;5010332;28;20073;-81
2022/07/11 01:23:48;;;;;;;12.75;2.70;;;;;;;;;;5010946;28;20132;-81
2022/07/11 01:26:16;;;;;;;6.88;2.20;;;;;;;;;;5011271;28;20080;-80
2022/07/11 01:28:44;;;;;;;8.70;2.42;;;;;;;;;;4991308;28;20051;-80
2022/07/11 01:31:12;;;;;;;14.63;2.90;;;;;;;;;;5005333;28;20053;-80
2022/07/11 01:33:40;;;;;;;19.13;2.75;;;;;;;;;;5008954;28;20053;-80
2022/07/11 01:36:08;;;;;;;7.03;2.45;;;;;;;;;;5009360;28;20057;-81
2022/07/11 01:38:36;;;;;;;12.63;2.88;;;;;;;;;;5005771;28;20137;-80
2022/07/11 01:41:03;;;;;;;11.75;2.42;;;;;;;;;;5005300;28;20042;-80
2022/07/11 01:43:30;;;;;;;16.88;2.40;;;;;;;;;;5024904;28;20647;-80
2022/07/11 01:45:58;;;;;;;7.97;2.50;;;;;;;;;;5025157;28;20104;-80
2022/07/11 01:48:25;;;;;;;15.93;2.42;;;;;;;;;;5010486;28;20058;-80
2022/07/11 01:50:53;;;;;;;11.57;2.97;;;;;;;;;;5025508;28;20696;-80
2022/07/11 01:53:20;;;;;;;11.63;2.45;;;;;;;;;;5025516;28;20139;-80
2022/07/11 01:55:47;;;;;;;11.65;2.60;;;;;;;;;;5009706;28;20140;-79
2022/07/11 01:58:35;;;;;;;15.27;4.20;;;;;;;;;;5010898;28;20042;-80
2022/07/11 02:01:02;;;;;;;15.13;2.78;;;;;;;;;;5022349;28;20071;-80
2022/07/11 02:03:30;;;;;;;16.10;2.60;;;;;;;;;;5009134;28;20049;-80
2022/07/11 02:05:57;;;;;;;9.02;2.88;;;;;;;;;;5013672;28;20081;-80
2022/07/11 02:08:24;;;;;;;13.63;2.92;;;;;;;;;;5009283;28;20049;-80
2022/07/11 02:10:52;;;;;;;12.40;3.13;;;;;;;;;;5013226;28;20132;-79
2022/07/11 02:13:20;;;;;;;11.45;2.80;;;;;;;;;;5011037;28;20129;-80
2022/07/11 02:15:49;;;;;;;9.60;2.70;;;;;;;;;;5013769;28;20046;-80
2022/07/11 02:18:17;;;;;;;12.35;3.20;;;;;;;;;;5024521;28;20442;-79
2022/07/11 02:20:51;;;;;;;10.40;2.90;;;;;;;;;;5007943;28;20372;-79
2022/07/11 02:23:19;;;;;;;11.93;2.92;;;;;;;;;;5020920;28;20084;-79
2022/07/11 02:25:47;;;;;;;17.83;2.90;;;;;;;;;;5022410;28;20057;-79
2022/07/11 02:28:15;;;;;;;10.80;3.28;;;;;;;;;;5012289;28;20140;-79
2022/07/11 02:30:43;;;;;;;14.95;3.55;;;;;;;;;;5008782;28;20053;-79
2022/07/11 02:33:13;;;;;;;9.00;3.13;;;;;;;;;;5004361;28;20096;-79
2022/07/11 02:35:41;;;;;;;17.60;3.88;;;;;;;;;;5005338;28;20317;-79
2022/07/11 02:38:08;;;;;;;16.42;3.50;;;;;;;;;;5008178;28;20074;-79
2022/07/11 02:40:36;;;;;;;14.70;4.20;;;;;;;;;;5010624;28;20161;-79
2022/07/11 02:43:05;;;;;;;12.50;3.35;;;;;;;;;;5013055;28;20521;-79
2022/07/11 02:45:32;;;;;;;18.83;3.47;;;;;;;;;;5016091;28;20088;-79
2022/07/11 02:47:59;;;;;;;17.52;3.38;;;;;;;;;;5015545;28;20134;-79
2022/07/11 02:50:26;;;;;;;7.85;3.03;;;;;;;;;;5030995;28;20137;-79
2022/07/11 02:52:54;;;;;;;9.95;2.92;;;;;;;;;;5025366;28;20069;-79
2022/07/11 02:55:21;;;;;;;19.85;3.92;;;;;;;;;;5012048;28;20084;-78
2022/07/11 02:57:48;;;;;;;12.18;4.00;;;;;;;;;;5013254;28;20747;-79
2022/07/11 03:00:17;;;;;;;19.42;4.20;;;;;;;;;;5022222;28;20486;-79
2022/07/11 03:02:44;;;;;;;10.93;2.75;;;;;;;;;;5025564;28;20165;-79
2022/07/11 03:05:15;;;;;;;8.48;3.40;;;;;;;;;;5028058;28;20902;-79
2022/07/11 03:07:42;;;;;;;17.27;3.65;;;;;;;;;;5012471;28;21476;-79
2022/07/11 03:10:10;;;;;;;18.27;3.85;;;;;;;;;;5023888;28;20058;-79
2022/07/11 03:12:38;;;;;;;12.68;3.72;;;;;;;;;;4996736;28;20050;-79
2022/07/11 03:15:05;;;;;;;19.65;3.72;;;;;;;;;;5010862;28;20079;-79
2022/07/11 03:17:33;;;;;;;11.93;3.63;;;;;;;;;;5013065;28;20042;-80
2022/07/11 03:20:00;;;;;;;13.38;4.05;;;;;;;;;;5026002;28;20081;-80
2022/07/11 03:22:28;;;;;;;14.73;4.00;;;;;;;;;;5015571;28;20045;-81
2022/07/11 03:24:55;;;;;;;16.52;3.50;;;;;;;;;;5014092;28;20089;-80
2022/07/11 03:27:24;;;;;;;16.67;4.22;;;;;;;;;;5027140;28;20076;-80
2022/07/11 03:29:52;;;;;;;12.95;3.85;;;;;;;;;;5028568;28;20077;-80
2022/07/11 03:32:20;;;;;;;20.60;4.30;;;;;;;;;;5010713;28;20085;-81
2022/07/11 03:37:40;;;;;;;13.63;3.88;;;;;;;;;;5012978;28;20049;-80
2022/07/11 03:40:08;;;;;;;12.80;3.80;;;;;;;;;;5024413;28;20119;-80
2022/07/11 03:42:36;;;;;;;21.58;4.05;;;;;;;;;;5012334;28;20112;-81
2022/07/11 03:45:03;;;;;;;17.50;3.97;;;;;;;;;;5012385;28;21168;-81
2022/07/11 03:47:32;;;;;;;19.10;4.65;;;;;;;;;;5013563;28;20499;-80
2022/07/11 03:50:00;;;;;;;16.60;5.00;;;;;;;;;;5022932;28;20049;-81
2022/07/11 03:52:28;;;;;;;12.25;3.97;;;;;;;;;;5014020;28;20495;-81
2022/07/11 03:54:55;;;;;;;14.73;3.78;;;;;;;;;;5047196;28;20054;-82
2022/07/11 03:57:22;;;;;;;13.82;4.40;;;;;;;;;;5015117;28;20085;-81
2022/07/11 03:59:49;;;;;;;19.00;3.88;;;;;;;;;;5011629;28;20550;-81
2022/07/11 04:02:17;;;;;;;21.30;4.40;;;;;;;;;;5011983;28;20518;-81
2022/07/11 04:04:44;;;;;;;13.43;3.72;;;;;;;;;;5009527;28;20058;-81
2022/07/11 04:07:11;;;;;;;13.23;4.22;;;;;;;;;;5024274;28;20093;-81
2022/07/11 04:09:39;;;;;;;11.07;3.53;;;;;;;;;;5015533;28;20533;-83
2022/07/11 04:12:07;;;;;;;18.25;3.92;;;;;;;;;;5014650;28;20109;-81
2022/07/11 04:14:34;;;;;;;18.52;4.18;;;;;;;;;;5023076;28;20074;-82
2022/07/11 04:17:01;;;;;;;20.38;4.82;;;;;;;;;;5011521;28;20125;-81
2022/07/11 04:19:29;;;;;;;19.88;4.63;;;;;;;;;;5014913;28;20586;-81
2022/07/11 04:21:56;;;;;;;15.68;4.10;;;;;;;;;;5025124;28;20133;-80
2022/07/11 04:24:24;;;;;;;12.77;4.43;;;;;;;;;;5023929;28;21447;-78
2022/07/11 04:26:51;;;;;;;15.20;3.85;;;;;;;;;;5007428;28;20455;-83
2022/07/11 04:29:18;;;;;;;15.52;4.30;;;;;;;;;;5020982;28;20140;-80
2022/07/11 04:31:45;;;;;;;16.40;4.03;;;;;;;;;;5009879;28;20077;-80
2022/07/11 04:34:14;;;;;;;17.85;5.28;;;;;;;;;;5025487;28;21429;-86
2022/07/11 04:36:41;;;;;;;31.38;5.65;;;;;;;;;;5021343;28;20137;-83
2022/07/11 04:39:08;;;;;;;13.27;4.22;;;;;;;;;;5020013;28;20074;-86
2022/07/11 04:41:36;;;;;;;17.70;4.72;;;;;;;;;;5007781;28;20077;-84
2022/07/11 04:44:03;;;;;;;18.02;4.18;;;;;;;;;;5026221;28;20055;-84
2022/07/11 04:46:31;;;;;;;16.15;4.10;;;;;;;;;;5011570;28;20137;-84
2022/07/11 04:48:59;;;;;;;20.60;3.95;;;;;;;;;;5011153;28;20053;-84
2022/07/11 04:51:26;;;;;;;17.92;4.80;;;;;;;;;;5009005;28;20112;-84
2022/07/11 04:53:54;;;;;;;17.05;4.72;;;;;;;;;;5004379;28;20057;-84
2022/07/11 04:56:21;;;;;;;19.65;4.47;;;;;;;;;;5006931;28;20121;-84
2022/07/11 04:58:49;;;;;;;15.90;4.03;;;;;;;;;;5010452;28;20112;-84
2022/07/11 05:01:16;;;;;;;22.38;4.68;;;;;;;;;;5009666;28;20623;-84
2022/07/11 05:03:44;;;;;;;18.92;4.57;;;;;;;;;;5011415;28;20057;-84
2022/07/11 05:06:13;;;;;;;15.20;4.35;;;;;;;;;;5010437;28;20054;-84
2022/07/11 05:08:40;;;;;;;28.50;5.05;;;;;;;;;;5011351;28;20046;-84
2022/07/11 05:11:07;;;;;;;19.40;4.03;;;;;;;;;;5011696;28;20078;-84
2022/07/11 05:13:35;;;;;;;12.38;4.05;;;;;;;;;;5010000;28;20084;-83
2022/07/11 05:16:03;;;;;;;21.95;5.22;;;;;;;;;;5011286;28;20054;-84
2022/07/11 05:18:30;;;;;;;21.20;4.15;;;;;;;;;;5009347;28;20046;-84
2022/07/11 05:20:58;;;;;;;17.60;4.05;;;;;;;;;;5011642;28;20045;-84
2022/07/11 05:23:25;;;;;;;15.02;4.40;;;;;;;;;;5010866;28;20054;-84
2022/07/11 05:25:53;;;;;;;15.93;4.07;;;;;;;;;;5010067;28;20464;-84
2022/07/11 05:28:20;;;;;;;24.15;4.10;;;;;;;;;;5010082;28;20089;-84
2022/07/11 05:30:47;;;;;;;21.52;4.15;;;;;;;;;;5009701;28;20701;-83
2022/07/11 05:33:15;;;;;;;14.63;3.78;;;;;;;;;;5010817;28;20085;-83
2022/07/11 05:35:42;;;;;;;16.30;3.60;;;;;;;;;;5009295;28;20089;-83
2022/07/11 05:38:09;;;;;;;13.77;3.08;;;;;;;;;;5010666;28;20462;-83
2022/07/11 05:40:37;;;;;;;10.27;3.60;;;;;;;;;;5009052;28;20239;-83
2022/07/11 05:43:04;;;;;;;28.55;3.90;;;;;;;;;;5008874;28;20053;-83
2022/07/11 05:45:32;;;;;;;18.60;4.95;;;;;;;;;;5007555;28;20050;-84
2022/07/11 05:47:59;;;;;;;13.00;3.97;;;;;;;;;;5008913;28;20168;-83
2022/07/11 05:50:26;;;;;;;15.40;3.50;;;;;;;;;;5006105;28;20089;-83
2022/07/11 05:52:57;;;;;;;8.38;3.00;;;;;;;;;;5005843;28;20510;-84
2022/07/11 05:55:24;;;;;;;15.32;3.20;;;;;;;;;;5007837;28;20046;-83
2022/07/11 05:57:52;;;;;;;20.33;3.97;;;;;;;;;;5009659;28;20107;-83
2022/07/11 06:00:21;;;;;;;16.83;3.70;;;;;;;;;;5010919;28;20045;-83
2022/07/11 06:02:48;;;;;;;18.65;3.20;;;;;;;;;;5010325;28;20062;-83
2022/07/11 06:05:16;;;;;;;11.70;3.70;;;;;;;;;;5009662;28;20832;-83
2022/07/11 06:10:29;;;;;;;;;;;;;;;;;;5008832;28;20100;-83
2022/07/11 06:12:56;;;;;;;15.23;3.38;;;;;;;;;;5009356;28;19987;-83
2022/07/11 06:15:23;;;;;;;10.23;3.03;;;;;;;;;;5007418;28;20129;-83
2022/07/11 06:17:51;;;;;;;23.23;2.92;;;;;;;;;;5009817;28;20049;-83
2022/07/11 06:20:18;;;;;;;12.65;3.03;;;;;;;;;;5007180;28;20064;-83
2022/07/11 06:22:46;;;;;;;7.68;2.40;;;;;;;;;;5002263;28;20046;-84
2022/07/11 06:25:13;;;;;;;16.65;2.60;;;;;;;;;;5002538;28;20144;-83
2022/07/11 06:27:40;;;;;;;16.65;2.75;;;;;;;;;;5001585;28;20085;-83
2022/07/11 06:30:08;;;;;;;9.82;2.38;;;;;;;;;;5002314;28;20129;-83
2022/07/11 06:32:35;;;;;;;11.85;2.30;;;;;;;;;;5003394;28;20081;-83
2022/07/11 06:35:03;;;;;;;14.30;2.85;;;;;;;;;;5009577;28;20758;-83
2022/07/11 06:37:30;;;;;;;10.45;2.03;;;;;;;;;;5010245;28;20388;-83
2022/07/11 06:39:58;;;;;;;5.88;1.90;;;;;;;;;;5009297;28;20046;-83
2022/07/11 06:42:25;;;;;;;6.03;2.00;;;;;;;;;;5009842;28;20049;-84
2022/07/11 06:44:54;;;;;;;7.55;2.00;;;;;;;;;;5009064;28;20124;-83
2022/07/11 06:47:21;;;;;;;11.00;2.00;;;;;;;;;;5009998;28;20505;-83
2022/07/11 06:49:48;;;;;;;9.48;1.77;;;;;;;;;;5010119;28;20844;-84
2022/07/11 06:52:16;;;;;;;11.93;1.92;;;;;;;;;;5009897;28;20065;-84
2022/07/11 06:54:43;;;;;;;15.07;2.13;;;;;;;;;;5008422;28;20088;-84
2022/07/11 06:57:10;;;;;;;9.20;1.77;;;;;;;;;;5009129;28;20088;-83
2022/07/11 06:59:39;;;;;;;12.38;2.00;;;;;;;;;;5009002;28;20155;-83
2022/07/11 07:02:06;;;;;;;8.82;2.35;;;;;;;;;;5008516;28;20046;-83
2022/07/11 07:04:34;;;;;;;11.02;2.55;;;;;;;;;;5008629;28;20088;-84
2022/07/11 07:07:01;;;;;;;7.75;2.00;;;;;;;;;;5008641;28;20512;-83
2022/07/11 07:09:29;;;;;;;17.40;1.85;;;;;;;;;;5009703;28;20491;-83
2022/07/11 07:11:57;;;;;;;12.07;2.42;;;;;;;;;;5009248;28;20054;-83
2022/07/11 07:14:24;;;;;;;7.07;2.00;;;;;;;;;;5008583;28;20092;-83
2022/07/11 07:16:52;;;;;;;13.57;2.33;;;;;;;;;;5010705;28;20056;-83
2022/07/11 07:19:20;;;;;;;7.30;1.58;;;;;;;;;;5009192;28;20225;-83
2022/07/11 07:21:48;;;;;;;10.93;1.95;;;;;;;;;;5004617;28;20475;-83
2022/07/11 07:24:15;;;;;;;8.52;2.03;;;;;;;;;;5009922;28;20155;-83
2022/07/11 07:26:44;;;;;;;9.23;2.03;;;;;;;;;;5011429;28;20071;-83
2022/07/11 07:29:12;;;;;;;9.38;1.83;;;;;;;;;;5013143;28;20045;-83
2022/07/11 07:31:39;;;;;;;6.22;2.22;;;;;;;;;;5011808;28;20054;-83
2022/07/11 07:34:08;;;;;;;11.38;2.85;;;;;;;;;;5013002;28;20475;-83
2022/07/11 07:36:35;;;;;;;13.20;2.00;;;;;;;;;;5011325;28;20141;-83
2022/07/11 07:39:02;;;;;;;13.32;2.08;;;;;;;;;;5013873;28;20053;-83
2022/07/11 07:41:30;;;;;;;10.00;1.88;;;;;;;;;;5012454;28;20485;-83
2022/07/11 07:43:57;;;;;;;10.82;1.98;;;;;;;;;;5011867;28;20135;-84
2022/07/11 07:46:24;;;;;;;11.25;1.73;;;;;;;;;;5013285;28;20062;-83
2022/07/11 07:48:52;;;;;;;16.23;2.03;;;;;;;;;;5011570;28;20050;-83
2022/07/11 07:51:19;;;;;;;7.47;1.80;;;;;;;;;;5009940;28;20140;-83
2022/07/11 07:53:46;;;;;;;7.00;1.42;;;;;;;;;;5011664;28;20077;-84
2022/07/11 07:56:22;;;;;;;10.82;1.83;;;;;;;;;;5011158;28;20045;-84
2022/07/11 07:58:51;;;;;;;7.32;1.88;;;;;;;;;;5011934;28;20530;-83
2022/07/11 08:01:40;;;;;;;4.85;1.50;;;;;;;;;;5008760;28;20041;-83
2022/07/11 08:04:08;;;;;;;7.63;1.73;;;;;;;;;;5012235;28;20060;-83
2022/07/11 08:06:37;;;;;;;10.82;2.70;;;;;;;;;;5012069;28;20780;-83
2022/07/11 08:09:05;;;;;;;5.82;1.33;;;;;;;;;;5011103;28;20111;-84
2022/07/11 08:11:33;;;;;;;6.25;2.00;;;;;;;;;;5011487;28;20053;-84
2022/07/11 08:14:01;;;;;;;9.43;1.67;;;;;;;;;;5010928;28;20096;-83
2022/07/11 08:16:28;;;;;;;7.93;1.63;;;;;;;;;;5010870;28;20089;-84
2022/07/11 08:18:57;;;;;;;8.10;1.80;;;;;;;;;;5011025;28;20050;-84
2022/07/11 08:21:25;;;;;;;7.75;1.80;;;;;;;;;;5012203;28;20124;-84
2022/07/11 08:23:52;;;;;;;9.30;2.00;;;;;;;;;;5012534;28;20054;-84
2022/07/11 08:26:19;;;;;;;7.15;1.42;;;;;;;;;;5010974;28;20057;-84
2022/07/11 08:28:47;;;;;;;5.32;1.73;;;;;;;;;;5010392;28;20136;-84
2022/07/11 08:31:14;;;;;;;7.28;1.50;;;;;;;;;;5009212;28;20115;-84
2022/07/11 08:33:41;;;;;;;7.45;1.60;;;;;;;;;;5011983;28;20054;-83
2022/07/11 08:36:09;;;;;;;11.32;1.80;;;;;;;;;;5011927;28;20050;-83
2022/07/11 08:38:37;;;;;;;5.20;1.52;;;;;;;;;;5011265;28;20136;-83
2022/07/11 08:41:04;;;;;;;13.35;1.85;;;;;;;;;;5011342;28;20499;-83
2022/07/11 08:43:32;;;;;;;7.30;1.70;;;;;;;;;;5011541;28;20073;-84
2022/07/11 08:46:00;;;;;;;8.10;1.85;;;;;;;;;;5009664;28;20542;-84
2022/07/11 08:48:28;;;;;;;8.95;1.90;;;;;;;;;;5009989;28;20046;-84
2022/07/11 08:50:56;;;;;;;4.30;1.17;;;;;;;;;;5011288;28;20105;-84
2022/07/11 08:53:23;;;;;;;11.80;1.27;;;;;;;;;;5011521;28;20088;-84
2022/07/11 08:55:50;;;;;;;3.85;1.30;;;;;;;;;;5011177;28;20471;-83
2022/07/11 08:58:18;;;;;;;10.85;1.65;;;;;;;;;;5011360;28;20182;-84
2022/07/11 09:00:45;;;;;;;9.50;1.67;;;;;;;;;;5004393;28;20532;-84
2022/07/11 09:03:14;;;;;;;3.03;1.50;;;;;;;;;;5004972;28;20088;-84
2022/07/11 09:05:41;;;;;;;7.18;1.40;;;;;;;;;;5009825;28;20085;-83
2022/07/11 09:08:09;;;;;;;6.50;1.27;;;;;;;;;;5009876;28;20133;-84
2022/07/11 09:10:39;;;;;;;11.35;1.75;;;;;;;;;;5008992;28;20153;-84
2022/07/11 09:13:08;;;;;;;5.10;1.20;;;;;;;;;;5008807;28;20514;-84
2022/07/11 09:15:35;;;;;;;3.90;1.00;;;;;;;;;;5010823;28;20125;-84
2022/07/11 09:18:04;;;;;;;6.68;1.55;;;;;;;;;;5009724;28;20042;-84
2022/07/11 09:26:24;;;;;;;4.40;1.73;;;;;;;;;;5004986;28;20125;-76
2022/07/11 09:29:05;;;;;;;4.90;1.38;;;;;;;;;;5003661;28;20096;-75
2022/07/11 09:31:33;;;;;;;7.00;1.08;;;;;;;;;;5004243;28;20057;-75
2022/07/11 09:34:02;;;;;;;2.35;0.95;;;;;;;;;;5003394;28;20058;-75
2022/07/11 09:36:35;;;;;;;10.02;1.25;;;;;;;;;;5005138;28;20128;-75
2022/07/11 09:39:04;;;;;;;6.40;1.05;;;;;;;;;;5004818;28;20073;-75
2022/07/11 09:41:32;;;;;;;6.93;1.30;;;;;;;;;;5004369;28;20188;-75
2022/07/11 09:44:09;;;;;;;2.58;0.93;;;;;;;;;;5004533;28;20461;-73
2022/07/11 09:46:36;;;;;;;9.55;1.50;;;;;;;;;;5003680;28;20161;-72
2022/07/11 09:49:05;;;;;;;3.50;1.13;;;;;;;;;;5004776;28;20124;-73
2022/07/11 09:51:34;;;;;;;5.85;1.00;;;;;;;;;;5004657;28;20161;-73
2022/07/11 09:54:04;;;;;;;5.72;1.73;;;;;;;;;;5002779;28;20134;-73
2022/07/11 09:56:31;;;;;;;5.15;1.20;;;;;;;;;;5002300;28;20140;-73
2022/07/11 09:59:18;;;;;;;5.70;1.00;;;;;;;;;;5003818;28;20136;-72
2022/07/11 10:01:46;;;;;;;8.32;1.30;;;;;;;;;;5003284;28;20165;-73
2022/07/11 10:04:13;;;;;;;7.18;1.40;;;;;;;;;;5002252;28;20478;-73
2022/07/11 10:06:44;;;;;;;8.63;1.35;;;;;;;;;;5004560;28;20053;-73
2022/07/11 10:09:12;;;;;;;2.85;1.27;;;;;;;;;;5004498;28;20085;-73
2022/07/11 10:11:39;;;;;;;5.63;1.95;;;;;;;;;;5003113;28;20077;-73
2022/07/11 10:14:07;;;;;;;6.50;1.13;;;;;;;;;;5003101;28;20050;-73
2022/07/11 10:16:41;;;;;;;3.97;0.80;;;;;;;;;;5002831;28;20050;-75
2022/07/11 10:19:27;;;;;;;6.78;1.17;;;;;;;;;;5003030;28;20552;-75
2022/07/11 10:22:13;;;;;;;6.20;1.13;;;;;;;;;;5002812;28;20145;-76
2022/07/11 10:24:41;;;;;;;9.80;1.30;;;;;;;;;;5004185;28;20085;-76
2022/07/11 10:27:17;;;;;;;6.10;1.35;;;;;;;;;;5004635;28;20221;-72
2022/07/11 10:29:54;;;;;;;6.05;1.30;;;;;;;;;;5004055;28;20419;-73
2022/07/11 10:32:21;;;;;;;10.70;1.15;;;;;;;;;;5003926;28;20159;-73
2022/07/11 10:35:07;;;;;;;5.57;1.15;;;;;;;;;;5004378;28;20057;-73
2022/07/11 10:37:53;;;;;;;3.50;1.20;;;;;;;;;;5003072;28;20054;-73
2022/07/11 10:40:39;;;;;;;6.72;0.80;;;;;;;;;;5003935;28;20085;-73
2022/07/11 10:43:06;;;;;;;8.60;1.63;;;;;;;;;;5002809;28;20145;-73
2022/07/11 10:45:55;;;;;;;5.45;1.10;;;;;;;;;;5004018;28;20459;-74
2022/07/11 10:48:23;;;;;;;6.50;1.42;;;;;;;;;;5002117;28;20050;-74
2022/07/11 10:50:55;;;;;;;9.25;1.75;;;;;;;;;;5003064;28;20167;-74
2022/07/11 10:53:23;;;;;;;5.00;1.13;;;;;;;;;;5005392;28;20168;-74
2022/07/11 10:56:06;;;;;;;2.97;1.42;;;;;;;;;;5008025;28;20797;-74
2022/07/11 10:58:37;;;;;;;6.90;1.10;;;;;;;;;;5007879;28;20085;-74
2022/07/11 11:01:12;;;;;;;5.72;1.30;;;;;;;;;;5007886;28;20062;-74
2022/07/11 11:03:40;;;;;;;9.15;1.40;;;;;;;;;;5006550;28;20050;-74
2022/07/11 11:06:08;;;;;;;11.00;1.13;;;;;;;;;;5007380;28;20160;-74
2022/07/11 11:08:35;;;;;;;6.05;1.50;;;;;;;;;;5007918;28;20628;-74
2022/07/11 11:11:07;;;;;;;3.97;0.82;;;;;;;;;;5007620;28;20131;-74
2022/07/11 11:13:35;;;;;;;5.05;0.90;;;;;;;;;;5005994;28;20137;-75
2022/07/11 11:16:17;;;;;;;5.68;1.20;;;;;;;;;;5007692;28;20546;-74
2022/07/11 11:18:45;;;;;;;5.10;0.75;;;;;;;;;;5007415;28;20696;-74
2022/07/11 11:21:13;;;;;;;5.53;1.05;;;;;;;;;;5007610;28;20411;-74
2022/07/11 11:23:42;;;;;;;7.38;1.67;;;;;;;;;;5007689;28;20132;-74
2022/07/11 11:26:18;;;;;;;7.38;1.55;;;;;;;;;;5006096;28;20081;-74
2022/07/11 11:28:57;;;;;;;6.43;1.73;;;;;;;;;;5007505;28;20502;-74
2022/07/11 11:31:25;;;;;;;8.25;1.58;;;;;;;;;;5005751;28;20523;-73
2022/07/11 11:33:53;;;;;;;4.28;1.20;;;;;;;;;;5007664;28;20129;-73
2022/07/11 11:36:21;;;;;;;3.30;0.90;;;;;;;;;;5006773;28;20141;-74
2022/07/11 11:38:48;;;;;;;7.07;1.10;;;;;;;;;;5006973;28;20125;-74
2022/07/11 11:41:25;;;;;;;6.95;1.70;;;;;;;;;;5007080;28;20145;-74
2022/07/11 11:43:54;;;;;;;9.02;1.50;;;;;;;;;;5006241;28;20077;-73
2022/07/11 11:46:27;;;;;;;4.05;1.48;;;;;;;;;;5007508;28;20161;-74
2022/07/11 11:48:58;;;;;;;7.88;1.80;;;;;;;;;;5005400;28;20068;-73
2022/07/11 11:51:27;;;;;;;5.68;1.45;;;;;;;;;;5006597;28;20129;-74
2022/07/11 11:53:56;;;;;;;6.80;1.23;;;;;;;;;;5006990;28;20103;-74
2022/07/11 11:56:28;;;;;;;7.03;1.05;;;;;;;;;;5006489;28;20104;-75
2022/07/11 11:59:07;;;;;;;5.93;1.30;;;;;;;;;;5004576;28;20053;-76
2022/07/11 12:01:44;;;;;;;6.35;1.17;;;;;;;;;;5005337;28;20053;-75
2022/07/11 12:04:12;;;;;;;4.18;0.95;;;;;;;;;;5005947;28;20077;-76
2022/07/11 12:06:41;;;;;;;1.95;0.80;;;;;;;;;;5006808;28;20065;-75
2022/07/11 12:09:12;;;;;;;4.35;1.08;;;;;;;;;;5005421;28;20457;-76
2022/07/11 12:11:41;;;;;;;8.63;1.40;;;;;;;;;;5006548;28;20054;-75
2022/07/11 12:14:09;;;;;;;15.82;1.42;;;;;;;;;;5005562;28;20058;-75
2022/07/11 12:16:41;;;;;;;7.13;0.95;;;;;;;;;;5005574;28;20161;-76
2022/07/11 12:19:16;;;;;;;5.15;1.10;;;;;;;;;;5005664;28;20147;-75
2022/07/11 12:21:44;;;;;;;7.65;1.02;;;;;;;;;;5005017;28;20132;-75
2022/07/11 12:24:13;;;;;;;4.43;1.27;;;;;;;;;;5004908;28;20053;-76
2022/07/11 12:26:41;;;;;;;4.03;0.90;;;;;;;;;;5006942;28;20081;-75
2022/07/11 12:29:19;;;;;;;8.32;1.20;;;;;;;;;;5006456;28;20096;-75
2022/07/11 12:31:49;;;;;;;5.28;1.00;;;;;;;;;;5005016;28;20771;-75
2022/07/11 12:34:18;;;;;;;5.15;1.27;;;;;;;;;;5004707;28;20141;-75
2022/07/11 12:36:45;;;;;;;3.25;1.00;;;;;;;;;;5006352;28;20578;-75
2022/07/11 12:39:26;;;;;;;1.98;1.00;;;;;;;;;;5006448;28;20069;-75
2022/07/11 12:41:54;;;;;;;6.30;1.45;;;;;;;;;;5004731;28;20171;-75
2022/07/11 12:47:08;;;;;;;9.52;1.98;;;;;;;;;;5003941;28;20466;-74
2022/07/11 12:49:36;;;;;;;6.93;1.42;;;;;;;;;;5005744;28;20108;-75
2022/07/11 12:52:04;;;;;;;6.65;1.17;;;;;;;;;;5004670;28;20505;-75
2022/07/11 12:54:33;;;;;;;5.63;1.20;;;;;;;;;;5004215;28;20089;-75
2022/07/11 12:57:04;;;;;;;3.47;0.98;;;;;;;;;;5005437;28;20161;-75
2022/07/11 12:59:32;;;;;;;7.35;1.50;;;;;;;;;;5004719;28;20367;-75
2022/07/11 13:02:03;;;;;;;2.30;1.00;;;;;;;;;;5005405;28;20089;-75
2022/07/11 13:04:32;;;;;;;5.22;0.90;;;;;;;;;;5004318;28;20049;-75
2022/07/11 13:10:04;;;;;;;6.20;1.38;;;;;;;;;;5005419;28;20060;-74
2022/07/11 13:12:32;;;;;;;7.50;1.15;;;;;;;;;;5003786;28;20054;-75
2022/07/11 13:15:10;;;;;;;7.28;1.30;;;;;;;;;;5004122;28;20096;-74
2022/07/11 13:17:41;;;;;;;11.93;1.50;;;;;;;;;;5003556;28;20050;-75
2022/07/11 13:20:12;;;;;;;10.10;1.45;;;;;;;;;;5003051;28;20064;-75
2022/07/11 13:22:41;;;;;;;2.58;1.08;;;;;;;;;;5005535;28;20089;-74
2022/07/11 13:25:10;;;;;;;3.33;1.17;;;;;;;;;;5005146;28;20046;-74
2022/07/11 13:27:37;;;;;;;8.20;1.15;;;;;;;;;;5005424;28;20133;-74
2022/07/11 13:30:11;;;;;;;3.60;0.95;;;;;;;;;;5003482;28;20137;-75
2022/07/11 13:32:38;;;;;;;4.28;0.90;;;;;;;;;;5005459;28;20159;-74
2022/07/11 13:35:06;;;;;;;5.68;0.88;;;;;;;;;;5005116;28;20147;-74
2022/07/11 13:37:41;;;;;;;4.53;1.10;;;;;;;;;;5004946;28;20045;-75
2022/07/11 13:40:13;;;;;;;5.05;1.00;;;;;;;;;;5004439;28;20050;-74
2022/07/11 13:42:41;;;;;;;8.30;1.08;;;;;;;;;;5004752;28;20135;-74
2022/07/11 13:45:09;;;;;;;3.60;1.00;;;;;;;;;;5003361;28;20424;-74
2022/07/11 13:47:36;;;;;;;6.78;0.90;;;;;;;;;;5004255;28;20163;-74
2022/07/11 13:50:04;;;;;;;3.40;0.80;;;;;;;;;;5003419;28;20053;-75
2022/07/11 13:52:31;;;;;;;2.35;0.60;;;;;;;;;;5004746;28;20057;-74
2022/07/11 13:54:59;;;;;;;6.28;0.90;;;;;;;;;;5004833;28;20085;-74
2022/07/11 13:57:26;;;;;;;3.85;1.10;;;;;;;;;;5002598;28;20156;-75
2022/07/11 13:59:55;;;;;;;5.65;0.90;;;;;;;;;;5004338;28;20054;-74
2022/07/11 14:02:22;;;;;;;4.10;1.13;;;;;;;;;;5003392;28;20088;-74
2022/07/11 14:04:49;;;;;;;7.25;1.00;;;;;;;;;;5003267;28;20459;-74
2022/07/11 14:07:17;;;;;;;4.00;1.10;;;;;;;;;;5002666;28;20149;-74
2022/07/11 14:09:44;;;;;;;5.30;1.08;;;;;;;;;;5002656;28;20562;-74
2022/07/11 14:12:12;;;;;;;2.67;0.68;;;;;;;;;;5003150;28;20620;-74
2022/07/11 14:14:39;;;;;;;3.75;1.00;;;;;;;;;;5002765;28;20169;-74
2022/07/11 14:17:06;;;;;;;2.95;0.88;;;;;;;;;;5002804;28;20149;-75
2022/07/11 14:19:37;;;;;;;3.90;0.73;;;;;;;;;;5002500;28;20068;-74
2022/07/11 14:22:07;;;;;;;7.47;1.42;;;;;;;;;;5003028;28;20147;-74
2022/07/11 14:24:35;;;;;;;2.83;1.10;;;;;;;;;;5004500;28;20216;-74
2022/07/11 14:27:02;;;;;;;2.67;1.15;;;;;;;;;;5003228;28;20075;-74
2022/07/11 14:29:31;;;;;;;2.95;0.82;;;;;;;;;;5007004;28;20130;-74
2022/07/11 14:31:58;;;;;;;5.88;1.05;;;;;;;;;;5007899;28;20054;-74
2022/07/11 14:34:26;;;;;;;2.40;1.20;;;;;;;;;;5006413;28;20064;-74
2022/07/11 14:36:53;;;;;;;3.78;0.95;;;;;;;;;;5006822;28;20049;-74
2022/07/11 14:39:21;;;;;;;5.88;1.15;;;;;;;;;;5006526;28;20640;-74
2022/07/11 14:41:48;;;;;;;4.32;0.77;;;;;;;;;;5007638;28;20130;-74
2022/07/11 14:44:15;;;;;;;4.53;1.00;;;;;;;;;;5006555;28;20141;-74
2022/07/11 14:46:43;;;;;;;3.95;0.88;;;;;;;;;;5006772;28;20085;-75
2022/07/11 14:49:14;;;;;;;8.07;1.33;;;;;;;;;;5006331;28;20056;-75
2022/07/11 14:51:41;;;;;;;6.07;0.80;;;;;;;;;;5005539;28;20053;-75
2022/07/11 14:54:23;;;;;;;5.97;1.10;;;;;;;;;;5006237;28;20143;-74
2022/07/11 14:56:50;;;;;;;6.90;1.02;;;;;;;;;;5007183;28;20082;-75
2022/07/11 14:59:18;;;;;;;3.92;0.80;;;;;;;;;;5007495;28;20145;-74
2022/07/11 15:01:45;;;;;;;7.43;0.85;;;;;;;;;;5006932;28;20084;-75
2022/07/11 15:04:13;;;;;;;3.60;1.20;;;;;;;;;;5006756;28;20049;-75